Time;durP1;ratioP1;P1;durP2;ratioP2;P2;SDS_P1;SDS_P2;PMS_P1;PMS_P2;Temp;Humidity;BMP_temperature;BMP_pressure;BME280_temperature;BME280_humidity;BME280_pressure;Samples;Min_cycle;Max_cycle;Signal;HPM_P1;HPM_P2
2020/12/20 00:01:01;;;;;;;30.25;12.88;;;4.50;99.90;;;;;;5065193;28;20484;-69
2020/12/20 00:03:27;;;;;;;30.48;11.73;;;4.50;99.90;;;;;;5063195;28;20503;-69
2020/12/20 00:05:54;;;;;;;26.02;9.95;;;4.50;99.90;;;;;;5066824;28;20177;-70
2020/12/20 00:08:21;;;;;;;27.58;9.75;;;4.50;99.90;;;;;;5054748;28;20056;-70
2020/12/20 00:10:47;;;;;;;29.75;9.35;;;4.50;99.90;;;;;;5061770;28;20097;-70
2020/12/20 00:13:17;;;;;;;27.67;9.23;;;4.50;99.90;;;;;;5068040;28;20052;-69
2020/12/20 00:15:44;;;;;;;26.10;10.48;;;4.50;99.90;;;;;;5066288;28;20561;-69
2020/12/20 00:18:11;;;;;;;28.42;10.25;;;4.60;99.90;;;;;;5059625;28;20132;-70
2020/12/20 00:20:38;;;;;;;25.95;8.60;;;4.60;99.90;;;;;;5049686;28;20049;-69
2020/12/20 00:23:04;;;;;;;30.27;10.02;;;4.60;99.90;;;;;;5059663;28;20525;-70
2020/12/20 00:25:31;;;;;;;29.52;9.95;;;4.60;99.90;;;;;;5059310;28;20040;-70
2020/12/20 00:27:57;;;;;;;22.63;8.32;;;4.60;99.90;;;;;;5077524;28;20040;-69
2020/12/20 00:30:24;;;;;;;28.42;9.60;;;4.60;99.90;;;;;;5061751;28;20521;-70
2020/12/20 00:32:51;;;;;;;33.05;10.07;;;4.70;99.90;;;;;;5052726;28;20053;-70
2020/12/20 00:35:18;;;;;;;28.55;9.23;;;4.70;99.90;;;;;;5061084;28;20047;-70
2020/12/20 00:37:45;;;;;;;25.92;9.18;;;4.60;99.90;;;;;;5058499;28;20504;-70
2020/12/20 00:40:12;;;;;;;25.20;8.85;;;4.60;99.90;;;;;;5065175;28;20685;-70
2020/12/20 00:42:39;;;;;;;25.02;9.07;;;4.60;99.90;;;;;;5068736;28;20738;-70
2020/12/20 00:45:06;;;;;;;29.17;9.48;;;4.60;99.90;;;;;;5062541;28;20037;-70
2020/12/20 00:47:32;;;;;;;27.13;9.13;;;4.60;99.90;;;;;;5069815;28;20045;-70
2020/12/20 00:49:59;;;;;;;21.92;9.10;;;4.60;99.90;;;;;;5060847;28;20040;-70
2020/12/20 00:52:26;;;;;;;24.85;8.88;;;4.60;99.90;;;;;;5064565;28;20423;-70
2020/12/20 00:54:57;;;;;;;26.65;9.05;;;4.60;99.90;;;;;;5053487;28;20053;-70
2020/12/20 00:57:24;;;;;;;26.83;9.57;;;4.60;99.90;;;;;;5057054;28;20040;-69
2020/12/20 00:59:51;;;;;;;23.05;9.05;;;4.50;99.90;;;;;;5064055;28;20055;-70
2020/12/20 01:02:17;;;;;;;23.67;8.32;;;4.50;99.90;;;;;;5050341;28;20044;-70
2020/12/20 01:04:44;;;;;;;25.15;8.85;;;4.60;99.90;;;;;;5058785;28;20043;-71
2020/12/20 01:07:10;;;;;;;25.13;8.50;;;4.60;99.90;;;;;;5067934;28;20039;-70
2020/12/20 01:09:45;;;;;;;24.67;8.30;;;4.60;99.90;;;;;;5053006;28;20052;-70
2020/12/20 01:12:13;;;;;;;27.17;9.43;;;4.60;99.90;;;;;;5051126;28;20112;-70
2020/12/20 01:15:00;;;;;;;24.08;8.35;;;4.60;99.90;;;;;;5055654;28;20060;-70
2020/12/20 01:17:26;;;;;;;27.70;9.52;;;4.60;99.90;;;;;;5047549;28;20129;-70
2020/12/20 01:19:54;;;;;;;27.58;9.18;;;4.60;99.90;;;;;;5040521;28;20044;-70
2020/12/20 01:22:22;;;;;;;22.65;8.38;;;4.70;99.90;;;;;;5043134;28;20094;-70
2020/12/20 01:24:49;;;;;;;26.25;9.30;;;4.70;99.90;;;;;;5072160;28;20155;-70
2020/12/20 01:27:18;;;;;;;25.63;8.43;;;4.70;99.90;;;;;;5035942;28;20052;-70
2020/12/20 01:29:45;;;;;;;25.08;9.35;;;4.70;99.90;;;;;;5059113;28;20052;-70
2020/12/20 01:32:16;;;;;;;23.33;9.02;;;4.70;99.90;;;;;;5051145;28;20159;-69
2020/12/20 01:34:46;;;;;;;24.23;7.80;;;4.70;99.90;;;;;;5065085;28;20044;-70
2020/12/20 01:37:13;;;;;;;22.85;8.07;;;4.70;99.90;;;;;;5056912;28;20588;-70
2020/12/20 01:39:47;;;;;;;22.58;8.02;;;4.70;99.90;;;;;;5064639;28;20432;-70
2020/12/20 01:42:14;;;;;;;21.77;9.20;;;4.70;99.90;;;;;;5067974;28;20056;-70
2020/12/20 01:44:42;;;;;;;27.20;8.38;;;4.60;99.90;;;;;;5065758;28;20526;-70
2020/12/20 01:47:08;;;;;;;25.63;8.27;;;4.60;99.90;;;;;;5066082;28;20075;-70
2020/12/20 01:49:36;;;;;;;31.17;9.30;;;4.60;99.90;;;;;;5056107;28;20036;-70
2020/12/20 01:52:04;;;;;;;24.08;8.07;;;4.60;99.90;;;;;;5068489;28;20040;-70
2020/12/20 01:54:32;;;;;;;25.92;8.52;;;4.60;99.90;;;;;;5066873;28;20045;-70
2020/12/20 01:57:11;;;;;;;26.02;9.02;;;4.60;99.90;;;;;;5054611;28;20587;-69
2020/12/20 01:59:59;;;;;;;27.73;8.68;;;4.60;99.90;;;;;;5059943;28;20044;-70
2020/12/20 02:02:40;;;;;;;26.80;8.93;;;4.60;99.90;;;;;;5057158;28;20766;-70
2020/12/20 02:05:10;;;;;;;27.92;8.45;;;4.60;99.90;;;;;;5080814;28;20043;-70
2020/12/20 02:07:37;;;;;;;23.42;8.07;;;4.60;99.90;;;;;;5061691;28;20122;-70
2020/12/20 02:10:04;;;;;;;24.55;7.88;;;4.60;99.90;;;;;;5065870;28;20704;-70
2020/12/20 02:12:31;;;;;;;28.90;8.77;;;4.60;99.90;;;;;;5039257;28;20535;-70
2020/12/20 02:15:08;;;;;;;21.70;8.45;;;4.60;99.90;;;;;;5077384;28;20075;-70
2020/12/20 02:17:35;;;;;;;25.30;9.27;;;4.70;99.90;;;;;;5050000;28;20047;-70
2020/12/20 02:20:16;;;;;;;27.52;9.35;;;4.60;99.90;;;;;;5057180;28;20041;-70
2020/12/20 02:23:09;;;;;;;28.73;8.98;;;4.60;99.90;;;;;;5066170;28;20045;-69
2020/12/20 02:25:43;;;;;;;27.63;9.80;;;4.60;99.90;;;;;;5054564;28;20042;-70
2020/12/20 02:28:20;;;;;;;25.52;9.63;;;4.60;99.90;;;;;;5072893;28;20047;-69
2020/12/20 02:30:54;;;;;;;30.00;9.13;;;4.60;99.90;;;;;;5066350;28;20754;-69
2020/12/20 02:33:25;;;;;;;24.98;9.45;;;4.60;99.90;;;;;;5064166;28;20053;-69
2020/12/20 02:35:53;;;;;;;25.17;8.93;;;4.70;99.90;;;;;;5056080;28;20107;-69
2020/12/20 02:38:19;;;;;;;26.90;9.20;;;4.70;99.90;;;;;;5062902;28;20455;-70
2020/12/20 02:41:06;;;;;;;23.42;8.23;;;4.70;99.90;;;;;;5069388;28;20061;-69
2020/12/20 02:43:33;;;;;;;26.65;8.85;;;4.70;99.90;;;;;;5065954;28;20048;-70
2020/12/20 02:46:00;;;;;;;28.63;9.68;;;4.70;99.90;;;;;;5054136;28;20041;-70
2020/12/20 02:48:27;;;;;;;27.02;9.50;;;4.70;99.90;;;;;;5070404;28;20071;-69
2020/12/20 02:50:54;;;;;;;27.00;9.20;;;4.70;99.90;;;;;;5068850;28;20055;-69
2020/12/20 02:53:21;;;;;;;28.90;9.60;;;4.70;99.90;;;;;;5044543;28;20135;-69
2020/12/20 02:55:47;;;;;;;27.67;9.07;;;4.70;99.90;;;;;;5064164;28;20050;-69
2020/12/20 02:58:16;;;;;;;23.65;8.75;;;4.70;99.90;;;;;;5040049;28;20444;-70
2020/12/20 03:00:58;;;;;;;29.50;8.80;;;4.70;99.90;;;;;;5065278;28;20044;-70
2020/12/20 03:03:25;;;;;;;28.42;9.13;;;4.70;99.90;;;;;;5084063;28;20447;-71
2020/12/20 03:05:53;;;;;;;23.52;8.05;;;4.70;99.90;;;;;;5067219;28;20060;-71
2020/12/20 03:08:20;;;;;;;28.42;8.75;;;4.70;99.90;;;;;;5066619;28;20036;-70
2020/12/20 03:10:49;;;;;;;21.30;9.13;;;4.70;99.90;;;;;;5062865;28;20069;-70
2020/12/20 03:13:16;;;;;;;30.75;9.93;;;4.70;99.90;;;;;;5060622;28;20044;-70
2020/12/20 03:15:46;;;;;;;27.80;9.10;;;4.70;99.90;;;;;;5041270;28;20504;-70
2020/12/20 03:18:16;;;;;;;28.10;8.23;;;4.70;99.90;;;;;;5063932;28;20044;-70
2020/12/20 03:21:00;;;;;;;25.23;8.45;;;4.70;99.90;;;;;;5059287;28;20052;-70
2020/12/20 03:23:31;;;;;;;27.58;9.98;;;4.70;99.90;;;;;;5066124;28;20045;-70
2020/12/20 03:26:29;;;;;;;23.77;7.68;;;4.70;99.90;;;;;;5063712;28;20055;-71
2020/12/20 03:29:18;;;;;;;23.50;7.95;;;4.70;99.90;;;;;;5056817;28;20045;-71
2020/12/20 03:31:56;;;;;;;24.25;8.85;;;4.70;99.90;;;;;;5045237;28;20068;-70
2020/12/20 03:34:52;;;;;;;25.25;8.68;;;4.70;99.90;;;;;;5046333;28;20040;-70
2020/12/20 03:37:33;;;;;;;24.60;8.60;;;4.70;99.90;;;;;;5052996;28;20063;-69
2020/12/20 03:40:07;;;;;;;25.13;8.68;;;4.70;99.90;;;;;;5063811;28;20045;-69
2020/12/20 03:42:34;;;;;;;28.10;8.48;;;4.70;99.90;;;;;;5059741;28;20049;-70
2020/12/20 03:45:00;;;;;;;24.33;8.32;;;4.70;99.90;;;;;;5067096;28;20572;-70
2020/12/20 03:47:27;;;;;;;23.52;8.30;;;4.60;99.90;;;;;;5069355;28;20059;-69
2020/12/20 03:49:54;;;;;;;27.98;8.38;;;4.60;99.90;;;;;;5064722;28;20369;-70
2020/12/20 03:52:22;;;;;;;29.23;8.40;;;4.60;99.90;;;;;;5053365;28;20439;-70
2020/12/20 03:55:07;;;;;;;24.60;8.82;;;4.70;99.90;;;;;;5066865;28;20082;-70
2020/12/20 03:57:34;;;;;;;26.05;8.77;;;4.60;99.90;;;;;;5064470;28;20048;-70
2020/12/20 04:00:04;;;;;;;26.00;8.30;;;4.60;99.90;;;;;;5068853;28;20064;-69
2020/12/20 04:02:40;;;;;;;27.92;9.15;;;4.60;99.90;;;;;;5071022;28;20060;-70
2020/12/20 04:05:10;;;;;;;24.15;8.93;;;4.60;99.90;;;;;;5054468;28;20075;-69
2020/12/20 04:07:42;;;;;;;25.15;8.43;;;4.60;99.90;;;;;;5057319;28;20430;-69
2020/12/20 04:10:10;;;;;;;28.63;8.18;;;4.60;99.90;;;;;;5062670;28;20107;-69
2020/12/20 04:12:37;;;;;;;28.20;9.10;;;4.70;99.90;;;;;;5043740;28;20094;-69
2020/12/20 04:15:04;;;;;;;23.67;7.70;;;4.70;99.90;;;;;;5055382;28;20044;-70
2020/12/20 04:17:30;;;;;;;21.40;8.15;;;4.60;99.90;;;;;;5071721;28;20064;-69
2020/12/20 04:19:57;;;;;;;29.80;8.63;;;4.60;99.90;;;;;;5068393;28;20052;-69
2020/12/20 04:23:02;;;;;;;26.23;8.32;;;4.60;99.90;;;;;;5054966;28;20148;-69
2020/12/20 04:25:43;;;;;;;26.05;9.32;;;4.60;99.90;;;;;;5050769;28;20040;-70
2020/12/20 04:28:30;;;;;;;24.05;8.57;;;4.70;99.90;;;;;;5062969;28;20585;-70
2020/12/20 04:31:11;;;;;;;27.58;8.35;;;4.70;99.90;;;;;;5065870;28;20598;-69
2020/12/20 04:33:39;;;;;;;24.70;8.50;;;4.60;99.90;;;;;;5068799;28;20060;-69
2020/12/20 04:36:17;;;;;;;25.55;8.50;;;4.60;99.90;;;;;;5062194;28;20048;-70
2020/12/20 04:38:43;;;;;;;34.03;9.07;;;4.70;99.90;;;;;;5057479;28;20060;-70
2020/12/20 04:41:12;;;;;;;29.58;8.57;;;4.60;99.90;;;;;;5070369;28;20048;-69
2020/12/20 04:43:42;;;;;;;29.02;8.85;;;4.60;99.90;;;;;;5055522;28;20127;-71
2020/12/20 04:46:10;;;;;;;21.73;7.78;;;4.60;99.90;;;;;;5060288;28;20488;-70
2020/12/20 04:48:47;;;;;;;26.95;8.57;;;4.60;99.90;;;;;;5053081;28;20037;-70
2020/12/20 04:51:16;;;;;;;28.73;9.23;;;4.60;99.90;;;;;;5062978;28;20049;-70
2020/12/20 04:53:45;;;;;;;28.10;9.48;;;4.60;99.90;;;;;;5059671;28;20063;-70
2020/12/20 04:56:18;;;;;;;28.27;9.23;;;4.70;99.90;;;;;;5061046;28;20722;-70
2020/12/20 04:58:56;;;;;;;25.08;8.80;;;4.60;99.90;;;;;;5049952;28;20048;-70
2020/12/20 05:01:24;;;;;;;26.95;9.15;;;4.60;99.90;;;;;;5044010;28;20091;-70
2020/12/20 05:03:52;;;;;;;26.60;9.00;;;4.60;99.90;;;;;;5056054;28;20036;-70
2020/12/20 05:06:19;;;;;;;24.85;8.82;;;4.60;99.90;;;;;;5061629;28;20047;-69
2020/12/20 05:09:07;;;;;;;24.75;8.93;;;4.60;99.90;;;;;;5067913;28;20737;-69
2020/12/20 05:11:44;;;;;;;26.50;9.07;;;4.50;99.90;;;;;;5068300;28;20413;-70
2020/12/20 05:14:17;;;;;;;21.73;8.10;;;4.50;99.90;;;;;;5058299;28;20447;-70
2020/12/20 05:17:00;;;;;;;25.30;8.93;;;4.50;99.90;;;;;;5068622;28;20415;-70
2020/12/20 05:19:32;;;;;;;27.95;9.20;;;4.50;99.90;;;;;;5064441;28;20567;-70
2020/12/20 05:22:19;;;;;;;;;;;4.50;99.90;;;;;;5065016;28;20044;-70
2020/12/20 05:24:52;;;;;;;22.05;7.60;;;4.50;99.90;;;;;;5061696;28;20029;-70
2020/12/20 05:27:29;;;;;;;25.65;8.82;;;4.50;99.90;;;;;;5059448;28;20048;-70
2020/12/20 05:30:16;;;;;;;26.65;9.07;;;4.50;99.90;;;;;;5072610;28;20049;-70
2020/12/20 05:33:07;;;;;;;28.27;10.02;;;4.50;99.90;;;;;;5066392;28;20377;-70
2020/12/20 05:35:35;;;;;;;27.83;9.65;;;4.50;99.90;;;;;;5048647;28;20045;-70
2020/12/20 05:38:04;;;;;;;28.15;10.43;;;4.50;99.90;;;;;;5049992;28;20043;-69
2020/12/20 05:40:33;;;;;;;30.55;10.90;;;4.50;99.90;;;;;;5049041;28;20051;-70
2020/12/20 05:43:08;;;;;;;26.80;8.85;;;4.50;99.90;;;;;;5066049;28;20773;-69
2020/12/20 05:45:43;;;;;;;31.45;9.57;;;4.50;99.90;;;;;;5066140;28;20044;-70
2020/12/20 05:48:31;;;;;;;29.10;10.02;;;4.60;99.90;;;;;;5048119;28;20049;-69
2020/12/20 05:51:08;;;;;;;29.05;10.15;;;4.50;99.90;;;;;;5052614;28;20072;-70
2020/12/20 05:53:35;;;;;;;27.75;10.30;;;4.50;99.90;;;;;;5064468;28;20052;-70
2020/12/20 05:56:04;;;;;;;24.83;9.15;;;4.60;99.90;;;;;;5069142;28;20059;-70
2020/12/20 05:58:32;;;;;;;27.52;9.20;;;4.60;99.90;;;;;;5059676;28;20102;-69
2020/12/20 06:00:59;;;;;;;25.83;8.82;;;4.50;99.90;;;;;;5065099;28;20052;-70
2020/12/20 06:03:27;;;;;;;23.73;10.27;;;4.50;99.90;;;;;;5068825;28;20045;-70
2020/12/20 06:05:53;;;;;;;26.20;9.50;;;4.50;99.90;;;;;;5063368;28;20057;-69
2020/12/20 06:08:22;;;;;;;26.90;9.23;;;4.60;99.90;;;;;;5065195;28;20745;-69
2020/12/20 06:10:53;;;;;;;26.52;9.20;;;4.60;99.90;;;;;;5069567;28;20043;-70
2020/12/20 06:13:24;;;;;;;26.40;8.50;;;4.50;99.90;;;;;;5055867;28;20419;-70
2020/12/20 06:15:55;;;;;;;25.75;9.73;;;4.50;99.90;;;;;;5070794;28;20051;-70
2020/12/20 06:18:31;;;;;;;23.73;9.75;;;4.50;99.90;;;;;;5070273;28;20044;-70
2020/12/20 06:21:02;;;;;;;29.98;10.25;;;4.50;99.90;;;;;;5058958;28;20357;-70
2020/12/20 06:23:33;;;;;;;24.50;8.13;;;4.50;99.90;;;;;;5061449;28;20044;-70
2020/12/20 06:26:03;;;;;;;26.67;9.63;;;4.50;99.90;;;;;;5059177;28;20105;-70
2020/12/20 06:28:31;;;;;;;41.30;16.30;;;4.50;99.90;;;;;;5067506;28;20037;-71
2020/12/20 06:30:59;;;;;;;37.97;13.13;;;4.40;99.90;;;;;;5069327;28;20383;-71
2020/12/20 06:33:43;;;;;;;30.42;11.93;;;4.40;99.90;;;;;;5069475;28;20564;-71
2020/12/20 06:36:12;;;;;;;35.35;12.98;;;4.40;99.90;;;;;;5061170;28;20503;-71
2020/12/20 06:38:39;;;;;;;52.28;17.48;;;4.50;99.90;;;;;;5047134;28;20045;-70
2020/12/20 06:41:05;;;;;;;55.58;21.25;;;4.50;99.90;;;;;;5066714;28;20086;-71
2020/12/20 06:43:37;;;;;;;37.13;13.18;;;4.50;99.90;;;;;;5058989;28;20577;-71
2020/12/20 06:46:05;;;;;;;44.38;17.10;;;4.50;99.90;;;;;;5055310;28;20041;-71
2020/12/20 06:48:32;;;;;;;32.60;13.30;;;4.40;99.90;;;;;;5068459;28;20049;-70
2020/12/20 06:51:00;;;;;;;34.90;13.45;;;4.50;99.90;;;;;;5068624;28;20040;-70
2020/12/20 06:53:45;;;;;;;30.73;12.15;;;4.50;99.90;;;;;;5066036;28;20052;-71
2020/12/20 06:56:17;;;;;;;43.03;15.27;;;4.60;99.90;;;;;;5068634;28;20048;-70
2020/12/20 06:58:43;;;;;;;36.60;14.57;;;4.60;99.90;;;;;;5067232;28;20057;-70
2020/12/20 07:01:09;;;;;;;35.25;13.68;;;4.60;99.90;;;;;;5061146;28;20045;-70
2020/12/20 07:03:40;;;;;;;23.63;9.98;;;4.60;99.90;;;;;;5062305;28;20040;-70
2020/12/20 07:06:14;;;;;;;26.67;8.93;;;4.60;99.90;;;;;;5062901;28;20061;-71
2020/12/20 07:09:06;;;;;;;23.33;8.18;;;4.60;99.90;;;;;;5070425;28;20041;-70
2020/12/20 07:11:41;;;;;;;29.30;9.88;;;4.60;99.90;;;;;;5064040;28;20076;-70
2020/12/20 07:14:22;;;;;;;27.75;10.27;;;4.60;99.90;;;;;;5064584;28;20475;-70
2020/12/20 07:16:50;;;;;;;23.00;8.55;;;4.60;99.90;;;;;;5066369;28;20045;-70
2020/12/20 07:19:24;;;;;;;21.17;7.68;;;4.60;99.90;;;;;;5064908;28;20049;-70
2020/12/20 07:21:54;;;;;;;23.58;8.48;;;4.60;99.90;;;;;;5068973;28;20134;-70
2020/12/20 07:24:29;;;;;;;22.05;8.80;;;4.70;99.90;;;;;;5044345;28;20559;-70
2020/12/20 07:27:00;;;;;;;24.58;8.75;;;4.70;99.90;;;;;;5063568;28;20442;-70
2020/12/20 07:29:28;;;;;;;26.33;9.88;;;4.70;99.90;;;;;;5067745;28;20045;-70
2020/12/20 07:31:56;;;;;;;21.50;9.30;;;4.60;99.90;;;;;;5063278;28;20045;-70
2020/12/20 07:34:25;;;;;;;24.70;8.88;;;4.70;99.90;;;;;;5052213;28;20482;-71
2020/12/20 07:36:53;;;;;;;25.55;8.70;;;4.70;99.90;;;;;;5065526;28;20040;-71
2020/12/20 07:39:20;;;;;;;24.90;9.88;;;4.70;99.90;;;;;;5071508;28;20052;-72
2020/12/20 07:41:46;;;;;;;27.58;8.73;;;4.70;99.90;;;;;;5061430;28;20041;-72
2020/12/20 07:44:13;;;;;;;33.45;10.98;;;4.80;99.90;;;;;;5066928;28;20044;-72
2020/12/20 07:46:40;;;;;;;31.08;10.93;;;4.70;99.90;;;;;;5067135;28;20767;-71
2020/12/20 07:49:11;;;;;;;38.10;11.18;;;4.70;99.90;;;;;;5066961;28;20037;-70
2020/12/20 07:51:39;;;;;;;30.98;10.48;;;4.70;99.90;;;;;;5067607;28;20037;-71
2020/12/20 07:54:11;;;;;;;30.00;11.90;;;4.80;99.90;;;;;;5069953;28;20490;-70
2020/12/20 07:56:43;;;;;;;30.20;10.88;;;4.80;99.90;;;;;;5062211;28;20049;-71
2020/12/20 07:59:14;;;;;;;35.40;13.63;;;4.80;99.90;;;;;;5061977;28;20040;-71
2020/12/20 08:01:45;;;;;;;27.30;10.20;;;4.80;99.90;;;;;;5066924;28;20426;-70
2020/12/20 08:04:18;;;;;;;26.55;9.05;;;4.90;99.90;;;;;;5044034;28;20758;-71
2020/12/20 08:06:46;;;;;;;27.63;10.07;;;4.90;99.90;;;;;;5063710;28;20040;-71
2020/12/20 08:09:21;;;;;;;24.55;9.77;;;4.90;99.90;;;;;;5051709;28;20033;-71
2020/12/20 08:11:49;;;;;;;21.70;8.63;;;4.90;99.90;;;;;;5065655;28;20052;-71
2020/12/20 08:14:20;;;;;;;24.75;9.65;;;4.90;99.90;;;;;;5046496;28;20079;-70
2020/12/20 08:16:50;;;;;;;28.20;9.88;;;4.90;99.90;;;;;;5066189;28;20040;-71
2020/12/20 08:19:31;;;;;;;22.52;8.43;;;5.00;99.90;;;;;;5060562;28;20049;-72
2020/12/20 08:22:20;;;;;;;28.08;9.90;;;5.00;99.90;;;;;;5081870;28;20099;-66
2020/12/20 08:24:48;;;;;;;26.25;9.55;;;5.00;99.90;;;;;;5061967;28;20098;-65
2020/12/20 08:27:22;;;;;;;29.83;9.73;;;5.10;99.90;;;;;;5064358;28;20045;-65
2020/12/20 08:29:55;;;;;;;26.13;9.52;;;5.10;99.90;;;;;;5061613;28;20111;-64
2020/12/20 08:32:33;;;;;;;30.17;10.43;;;5.10;99.90;;;;;;5066033;28;20047;-65
2020/12/20 08:35:21;;;;;;;23.15;8.32;;;5.20;99.90;;;;;;5060500;28;20516;-65
2020/12/20 08:38:00;;;;;;;28.77;10.35;;;5.20;99.90;;;;;;5055802;28;20066;-65
2020/12/20 08:40:32;;;;;;;25.67;10.00;;;5.20;99.90;;;;;;5064628;28;20059;-65
2020/12/20 08:43:00;;;;;;;27.48;10.15;;;5.20;99.90;;;;;;5056666;28;20819;-64
2020/12/20 08:45:30;;;;;;;28.80;10.43;;;5.30;99.90;;;;;;5044531;28;20044;-64
2020/12/20 08:48:02;;;;;;;30.58;9.43;;;5.30;99.90;;;;;;5060155;28;20040;-65
2020/12/20 08:50:33;;;;;;;27.63;9.88;;;5.30;99.90;;;;;;5056839;28;20059;-65
2020/12/20 08:53:06;;;;;;;27.70;9.43;;;5.30;99.90;;;;;;5057551;28;20087;-65
2020/12/20 08:55:32;;;;;;;;;;;5.30;99.90;;;;;;5055794;28;20052;-65
2020/12/20 08:58:05;;;;;;;27.38;10.02;;;5.30;99.90;;;;;;5057126;28;19959;-65
2020/12/20 09:00:32;;;;;;;27.65;11.82;;;5.40;99.90;;;;;;5063632;28;20059;-65
2020/12/20 09:03:00;;;;;;;25.17;10.13;;;5.30;99.90;;;;;;5063355;28;20059;-65
2020/12/20 09:05:33;;;;;;;26.95;9.60;;;5.30;99.90;;;;;;5063341;28;20388;-65
2020/12/20 09:08:00;;;;;;;27.55;9.43;;;5.40;99.90;;;;;;5073616;28;20570;-65
2020/12/20 09:10:32;;;;;;;29.85;12.93;;;5.30;99.90;;;;;;5061512;28;20087;-64
2020/12/20 09:13:00;;;;;;;30.90;12.23;;;5.40;99.90;;;;;;5062913;28;20048;-66
2020/12/20 09:15:33;;;;;;;33.63;14.95;;;5.30;99.90;;;;;;5056732;28;20297;-66
2020/12/20 09:18:15;;;;;;;32.08;12.93;;;5.30;99.90;;;;;;5054729;28;20052;-66
2020/12/20 09:20:43;;;;;;;31.93;13.93;;;5.30;99.90;;;;;;5062476;28;20053;-66
2020/12/20 09:23:19;;;;;;;31.27;14.57;;;5.30;99.90;;;;;;5051458;28;20040;-66
2020/12/20 09:25:47;;;;;;;39.70;15.05;;;5.30;99.90;;;;;;5058119;28;20044;-67
2020/12/20 09:28:20;;;;;;;73.88;25.38;;;5.30;99.90;;;;;;5053912;28;20049;-67
2020/12/20 09:30:58;;;;;;;74.60;29.13;;;5.30;99.90;;;;;;5044004;28;20048;-67
2020/12/20 09:33:30;;;;;;;36.85;14.57;;;5.40;99.90;;;;;;5065477;28;20032;-67
2020/12/20 09:35:59;;;;;;;28.95;8.77;;;5.40;99.90;;;;;;5065744;28;20124;-67
2020/12/20 09:38:29;;;;;;;28.83;9.23;;;5.40;99.90;;;;;;5054251;28;20504;-67
2020/12/20 09:40:58;;;;;;;26.05;9.68;;;5.40;99.90;;;;;;5038660;28;20051;-66
2020/12/20 09:43:25;;;;;;;29.40;12.57;;;5.40;99.90;;;;;;5035697;28;21395;-66
2020/12/20 09:45:51;;;;;;;22.88;8.48;;;5.40;99.90;;;;;;5064794;28;20078;-66
2020/12/20 09:48:21;;;;;;;18.50;7.30;;;5.50;99.90;;;;;;5063783;28;20067;-66
2020/12/20 09:50:48;;;;;;;23.25;9.25;;;5.50;99.90;;;;;;5064432;28;20397;-66
2020/12/20 09:53:14;;;;;;;29.42;9.45;;;5.40;99.90;;;;;;5055584;28;20499;-66
2020/12/20 09:55:41;;;;;;;29.17;8.52;;;5.50;99.90;;;;;;5060057;28;20057;-66
2020/12/20 09:58:09;;;;;;;22.55;8.20;;;5.40;99.90;;;;;;5061497;28;20053;-66
2020/12/20 10:00:36;;;;;;;28.52;9.23;;;5.40;99.90;;;;;;5063366;28;20055;-66
2020/12/20 10:03:03;;;;;;;26.77;9.65;;;5.40;99.90;;;;;;5060123;28;20056;-66
2020/12/20 10:05:30;;;;;;;28.85;10.50;;;5.50;99.90;;;;;;5057894;28;20044;-66
2020/12/20 10:07:57;;;;;;;28.17;10.32;;;5.50;99.90;;;;;;5063776;28;20095;-66
2020/12/20 10:10:24;;;;;;;27.50;9.32;;;5.50;99.90;;;;;;5065082;28;20041;-66
2020/12/20 10:12:50;;;;;;;27.15;9.23;;;5.50;99.90;;;;;;5057898;28;20045;-66
2020/12/20 10:15:17;;;;;;;24.85;8.52;;;5.60;99.90;;;;;;5055451;28;20044;-66
2020/12/20 10:17:45;;;;;;;22.90;8.73;;;5.60;99.90;;;;;;5063317;28;20044;-66
2020/12/20 10:20:12;;;;;;;21.83;8.35;;;5.60;99.90;;;;;;5066038;28;20049;-66
2020/12/20 10:22:38;;;;;;;25.38;8.95;;;5.60;99.90;;;;;;5064452;28;20041;-66
2020/12/20 10:25:16;;;;;;;22.92;8.35;;;5.70;99.90;;;;;;5056859;28;20447;-67
2020/12/20 10:27:44;;;;;;;25.13;8.35;;;5.70;99.90;;;;;;5058054;28;20051;-66
2020/12/20 10:30:13;;;;;;;24.05;8.50;;;5.70;99.90;;;;;;5058383;28;20045;-65
2020/12/20 10:32:41;;;;;;;25.88;10.32;;;5.80;99.90;;;;;;5061503;28;20037;-67
2020/12/20 10:35:07;;;;;;;26.48;9.48;;;5.80;99.90;;;;;;5060255;28;20131;-67
2020/12/20 10:37:34;;;;;;;106.13;36.35;;;5.80;99.90;;;;;;5045573;28;20434;-66
2020/12/20 10:40:02;;;;;;;250.45;67.45;;;5.70;99.90;;;;;;5062204;28;20036;-66
2020/12/20 10:42:29;;;;;;;45.42;15.95;;;5.70;99.90;;;;;;5060478;28;20032;-66
2020/12/20 10:44:56;;;;;;;26.70;10.18;;;5.70;99.90;;;;;;5054948;28;20048;-65
2020/12/20 10:47:23;;;;;;;40.97;13.05;;;5.70;99.90;;;;;;5041462;28;20523;-66
2020/12/20 10:49:51;;;;;;;29.70;9.93;;;5.80;99.90;;;;;;5046471;28;20053;-66
2020/12/20 10:52:18;;;;;;;27.70;9.65;;;5.90;99.90;;;;;;5052108;28;20041;-66
2020/12/20 10:54:45;;;;;;;84.88;29.75;;;6.00;99.90;;;;;;5059482;28;20059;-66
2020/12/20 10:57:11;;;;;;;47.95;19.52;;;6.00;99.90;;;;;;5067041;28;20045;-66
2020/12/20 10:59:38;;;;;;;32.75;12.45;;;6.00;99.90;;;;;;5059132;28;20055;-66
2020/12/20 11:02:05;;;;;;;30.40;13.02;;;6.10;99.90;;;;;;5063073;28;20051;-66
2020/12/20 11:04:31;;;;;;;24.38;9.40;;;6.20;99.90;;;;;;5055411;28;20037;-68
2020/12/20 11:06:59;;;;;;;27.08;8.73;;;6.20;99.90;;;;;;5050599;28;20066;-67
2020/12/20 11:09:26;;;;;;;24.35;8.73;;;6.20;99.90;;;;;;5057721;28;20151;-67
2020/12/20 11:11:53;;;;;;;19.58;8.13;;;6.20;99.90;;;;;;5048532;28;20057;-67
2020/12/20 11:14:20;;;;;;;27.02;8.43;;;6.10;99.90;;;;;;5069074;28;20036;-67
2020/12/20 11:16:51;;;;;;;24.08;8.15;;;6.10;99.90;;;;;;5056917;28;20582;-67
2020/12/20 11:19:21;;;;;;;29.92;10.05;;;6.20;99.90;;;;;;5063340;28;20040;-66
2020/12/20 11:21:53;;;;;;;27.67;8.52;;;6.20;99.90;;;;;;5058618;28;20044;-67
2020/12/20 11:24:20;;;;;;;25.67;9.63;;;6.20;99.90;;;;;;5050424;28;20106;-67
2020/12/20 11:26:48;;;;;;;24.08;8.93;;;6.20;99.90;;;;;;5052957;28;20507;-65
2020/12/20 11:29:16;;;;;;;28.42;9.57;;;6.10;99.90;;;;;;5055293;28;20069;-66
2020/12/20 11:31:44;;;;;;;26.63;9.23;;;6.10;99.90;;;;;;5055888;28;20135;-67
2020/12/20 11:34:11;;;;;;;24.45;10.20;;;6.10;99.90;;;;;;5062190;28;20048;-68
2020/12/20 11:36:42;;;;;;;26.55;9.82;;;6.10;99.90;;;;;;5055483;28;20051;-67
2020/12/20 11:39:10;;;;;;;30.73;10.63;;;6.10;99.90;;;;;;5061641;28;20431;-67
2020/12/20 11:41:37;;;;;;;32.22;11.40;;;6.00;99.90;;;;;;5062303;28;20156;-67
2020/12/20 11:44:05;;;;;;;29.52;10.48;;;6.00;99.90;;;;;;5063351;28;20040;-67
2020/12/20 11:46:32;;;;;;;33.72;11.32;;;6.00;99.90;;;;;;5056542;28;20048;-67
2020/12/20 11:48:59;;;;;;;27.42;10.88;;;6.00;99.90;;;;;;5062968;28;20067;-67
2020/12/20 11:51:27;;;;;;;134.60;41.95;;;6.00;99.90;;;;;;5057161;28;20049;-67
2020/12/20 11:53:55;;;;;;;582.28;181.43;;;6.00;99.90;;;;;;5051413;28;20069;-66
2020/12/20 11:56:25;;;;;;;632.60;171.07;;;6.00;99.90;;;;;;5052671;28;20126;-68
2020/12/20 11:58:52;;;;;;;414.77;144.05;;;6.00;99.90;;;;;;5058847;28;20045;-67
2020/12/20 12:01:23;;;;;;;66.35;29.27;;;6.00;99.90;;;;;;5044236;28;20049;-66
2020/12/20 12:03:50;;;;;;;33.90;12.55;;;5.90;99.90;;;;;;5061996;28;20058;-65
2020/12/20 12:06:17;;;;;;;31.35;12.63;;;5.90;99.90;;;;;;5059358;28;20416;-69
2020/12/20 12:08:45;;;;;;;38.05;15.20;;;5.90;99.90;;;;;;5063079;28;20051;-66
2020/12/20 12:11:19;;;;;;;44.25;15.85;;;5.90;99.90;;;;;;5048961;28;20047;-67
2020/12/20 12:13:47;;;;;;;61.70;22.85;;;5.90;99.90;;;;;;5065871;28;20055;-66
2020/12/20 12:16:15;;;;;;;55.95;21.15;;;5.90;99.90;;;;;;5059585;28;20106;-67
2020/12/20 12:18:45;;;;;;;39.33;16.98;;;5.90;99.90;;;;;;5049553;28;20059;-66
2020/12/20 12:21:15;;;;;;;53.03;19.20;;;5.90;99.90;;;;;;5043564;28;20504;-66
2020/12/20 12:23:46;;;;;;;40.65;14.45;;;5.90;99.90;;;;;;5053167;28;20137;-66
2020/12/20 12:26:32;;;;;;;35.70;12.90;;;5.90;99.90;;;;;;5059318;28;20488;-67
2020/12/20 12:28:58;;;;;;;29.95;11.30;;;5.90;99.90;;;;;;5055145;28;20037;-67
2020/12/20 12:31:25;;;;;;;38.78;16.10;;;5.90;99.90;;;;;;5063323;28;20056;-67
2020/12/20 12:33:51;;;;;;;36.15;14.35;;;5.90;99.90;;;;;;5060279;28;20044;-67
2020/12/20 12:36:18;;;;;;;30.55;11.32;;;6.00;99.90;;;;;;5059375;28;20491;-67
2020/12/20 12:38:45;;;;;;;30.00;10.75;;;6.00;99.90;;;;;;5057005;28;20059;-67
2020/12/20 12:41:11;;;;;;;30.42;12.25;;;5.90;99.90;;;;;;5055654;28;20044;-66
2020/12/20 12:43:39;;;;;;;26.67;9.18;;;5.90;99.90;;;;;;5062078;28;20040;-66
2020/12/20 12:46:07;;;;;;;28.17;10.75;;;6.00;99.90;;;;;;5054823;28;20047;-66
2020/12/20 12:48:38;;;;;;;105.57;40.22;;;6.00;99.90;;;;;;5060699;28;20041;-66
2020/12/20 12:51:04;;;;;;;450.80;140.18;;;6.00;99.90;;;;;;5052956;28;20111;-67
2020/12/20 12:53:30;;;;;;;95.65;42.20;;;6.00;99.90;;;;;;5054891;28;20049;-67
2020/12/20 12:55:57;;;;;;;76.78;24.55;;;6.00;99.90;;;;;;5056694;28;20087;-67
2020/12/20 12:58:26;;;;;;;53.03;17.95;;;6.00;99.90;;;;;;5060665;28;20052;-67
2020/12/20 13:00:53;;;;;;;57.95;20.23;;;5.90;99.90;;;;;;5050661;28;20055;-67